createdAt,value
2022-09-20T00:01:37.502Z,5.00
2022-09-20T00:03:42.666Z,4.40
2022-09-20T00:05:47.005Z,4.75
2022-09-20T00:07:50.852Z,4.30
2022-09-20T00:09:53.388Z,4.38
2022-09-20T00:11:56.078Z,5.00
2022-09-20T00:14:00.947Z,4.07
2022-09-20T00:16:06.564Z,3.88
2022-09-20T00:18:09.691Z,3.80
2022-09-20T00:20:12.244Z,4.28
2022-09-20T00:22:14.763Z,3.90
2022-09-20T00:24:19.101Z,3.60
2022-09-20T00:26:22.742Z,4.47
2022-09-20T00:28:25.769Z,4.00
2022-09-20T00:30:28.617Z,3.30
2022-09-20T00:32:32.320Z,3.55
2022-09-20T00:34:52.534Z,3.63
2022-09-20T00:36:55.132Z,3.40
2022-09-20T00:38:58.600Z,3.08
2022-09-20T00:41:02.461Z,2.97
2022-09-20T00:43:05.065Z,3.30
2022-09-20T00:45:09.022Z,3.33
2022-09-20T00:47:17.600Z,2.90
2022-09-20T00:49:25.007Z,3.00
2022-09-20T00:51:32.803Z,3.17
2022-09-20T00:53:38.139Z,2.92
2022-09-20T00:55:46.471Z,3.50
2022-09-20T00:57:51.016Z,3.00
2022-09-20T00:59:54.981Z,3.90
2022-09-20T01:02:02.940Z,3.80
2022-09-20T01:04:05.913Z,3.22
2022-09-20T01:06:14.588Z,3.13
2022-09-20T01:08:17.995Z,3.13
2022-09-20T01:10:20.553Z,3.25
2022-09-20T01:12:26.935Z,3.00
2022-09-20T01:14:30.894Z,3.38
2022-09-20T01:16:34.512Z,2.95
2022-09-20T01:18:39.137Z,3.10
2022-09-20T01:20:43.672Z,3.08
2022-09-20T01:23:00.113Z,3.05
2022-09-20T01:25:11.258Z,3.28
2022-09-20T01:27:21.746Z,3.65
2022-09-20T01:29:49.082Z,3.00
2022-09-20T01:31:55.807Z,3.47
2022-09-20T01:34:02.081Z,3.28
2022-09-20T01:36:07.136Z,3.42
2022-09-20T01:38:24.034Z,3.70
2022-09-20T01:40:37.583Z,3.03
2022-09-20T01:42:48.100Z,3.38
2022-09-20T01:45:01.881Z,3.30
2022-09-20T01:47:11.908Z,3.20
2022-09-20T01:49:25.974Z,2.95
2022-09-20T01:51:48.967Z,2.80
2022-09-20T01:54:31.406Z,3.08
2022-09-20T01:59:28.114Z,2.83
2022-09-20T02:02:07.089Z,3.03
2022-09-20T02:04:31.252Z,2.95
2022-09-20T02:06:46.846Z,3.35
2022-09-20T02:09:19.856Z,3.28
2022-09-20T02:11:26.343Z,3.50
2022-09-20T02:13:31.643Z,3.47
2022-09-20T02:16:09.842Z,2.92
2022-09-20T02:18:32.608Z,3.50
2022-09-20T02:20:44.967Z,3.00
2022-09-20T02:23:22.722Z,3.03
2022-09-20T02:25:44.985Z,3.20
2022-09-20T02:28:00.662Z,3.17
2022-09-20T02:30:17.167Z,2.90
2022-09-20T02:32:30.121Z,2.83
2022-09-20T02:35:08.859Z,2.80
2022-09-20T02:37:29.068Z,3.00
2022-09-20T02:39:37.532Z,2.97
2022-09-20T02:42:10.191Z,3.20
2022-09-20T02:44:21.914Z,3.15
2022-09-20T02:46:30.972Z,2.80
2022-09-20T02:48:40.013Z,2.50
2022-09-20T02:50:55.955Z,3.40
2022-09-20T02:53:12.133Z,3.08
2022-09-20T02:55:19.392Z,2.80
2022-09-20T02:57:31.125Z,2.35
2022-09-20T02:59:46.595Z,2.53
2022-09-20T03:02:00.879Z,2.80
2022-09-20T03:04:15.610Z,3.38
2022-09-20T03:06:28.408Z,2.65
2022-09-20T03:08:38.164Z,2.63
2022-09-20T03:10:50.158Z,2.80
2022-09-20T03:13:07.342Z,3.10
2022-09-20T03:15:20.972Z,2.53
2022-09-20T03:17:33.666Z,2.92
2022-09-20T03:19:49.564Z,2.75
2022-09-20T03:22:06.702Z,3.45
2022-09-20T03:24:20.988Z,3.08
2022-09-20T03:26:39.824Z,3.03
2022-09-20T03:28:58.989Z,3.00
2022-09-20T03:31:13.054Z,3.72
2022-09-20T03:33:26.046Z,3.22
2022-09-20T03:35:46.853Z,2.80
2022-09-20T03:38:03.568Z,3.85
2022-09-20T03:40:28.505Z,3.20
2022-09-20T03:42:34.840Z,3.33
2022-09-20T03:45:05.366Z,2.83
2022-09-20T03:47:25.410Z,2.42
2022-09-20T03:49:51.052Z,2.40
2022-09-20T03:52:03.399Z,2.85
2022-09-20T03:54:28.522Z,3.03
2022-09-20T03:57:03.718Z,2.55
2022-09-20T03:59:24.795Z,3.10
2022-09-20T04:01:42.367Z,2.72
2022-09-20T04:03:54.604Z,3.65
2022-09-20T04:06:09.807Z,3.88
2022-09-20T04:08:25.666Z,2.70
2022-09-20T04:10:42.506Z,3.45
2022-09-20T04:12:58.091Z,3.38
2022-09-20T04:15:15.531Z,3.10
2022-09-20T04:17:32.148Z,2.80
2022-09-20T04:19:41.172Z,3.15
2022-09-20T04:21:50.099Z,3.20
2022-09-20T04:24:00.114Z,3.63
2022-09-20T04:26:04.989Z,4.63
2022-09-20T04:28:13.997Z,2.67
2022-09-20T04:30:19.834Z,3.28
2022-09-20T04:32:29.986Z,3.10
2022-09-20T04:34:57.621Z,3.10
2022-09-20T04:37:04.906Z,3.45
2022-09-20T04:39:21.969Z,3.17
2022-09-20T04:42:07.618Z,4.18
2022-09-20T04:44:49.390Z,3.35
2022-09-20T04:47:27.789Z,3.17
2022-09-20T04:50:07.759Z,2.90
2022-09-20T04:52:26.058Z,3.13
2022-09-20T04:55:19.602Z,2.65
2022-09-20T04:57:41.981Z,2.65
2022-09-20T05:00:00.901Z,3.00
2022-09-20T05:02:56.008Z,3.88
2022-09-20T05:05:30.460Z,3.20
2022-09-20T05:08:14.201Z,3.80
2022-09-20T05:10:38.153Z,3.63
2022-09-20T05:13:00.374Z,3.28
2022-09-20T05:15:12.967Z,3.95
2022-09-20T05:17:26.416Z,3.90
2022-09-20T05:19:34.137Z,3.50
2022-09-20T05:22:18.414Z,3.42
2022-09-20T05:24:44.942Z,3.75
2022-09-20T05:27:00.503Z,3.40
2022-09-20T05:29:14.303Z,3.05
2022-09-20T05:31:25.575Z,3.40
2022-09-20T05:33:35.065Z,3.15
2022-09-20T05:35:44.935Z,3.35
2022-09-20T05:37:56.801Z,3.58
2022-09-20T05:42:18.662Z,3.28
2022-09-20T05:44:31.057Z,3.50
2022-09-20T05:46:42.027Z,3.35
2022-09-20T05:48:57.826Z,3.10
2022-09-20T05:51:07.499Z,3.42
2022-09-20T05:53:37.098Z,2.97
2022-09-20T05:55:56.723Z,3.53
2022-09-20T05:58:17.096Z,3.00
2022-09-20T06:00:26.419Z,3.65
2022-09-20T06:02:42.126Z,3.47
2022-09-20T06:04:53.326Z,3.28
2022-09-20T06:07:03.468Z,3.25
2022-09-20T06:09:27.917Z,3.13
2022-09-20T06:11:47.350Z,2.97
2022-09-20T06:14:09.375Z,3.55
2022-09-20T06:18:25.911Z,3.75
2022-09-20T06:20:34.168Z,3.03
2022-09-20T06:22:42.758Z,3.20
2022-09-20T06:24:50.091Z,3.22
2022-09-20T06:26:56.810Z,3.08
2022-09-20T06:29:02.670Z,3.03
2022-09-20T06:31:09.105Z,3.15
2022-09-20T06:33:17.541Z,3.15
2022-09-20T06:35:21.574Z,3.88
2022-09-20T06:38:09.946Z,3.90
2022-09-20T06:40:43.107Z,5.05
2022-09-20T06:42:45.645Z,4.75
2022-09-20T06:44:48.217Z,3.85
2022-09-20T06:46:53.556Z,3.58
2022-09-20T06:48:58.334Z,3.97
2022-09-20T06:51:03.798Z,3.95
2022-09-20T06:53:06.658Z,4.38
2022-09-20T06:55:18.390Z,4.30
2022-09-20T06:57:24.764Z,5.25
2022-09-20T06:59:27.289Z,4.47
2022-09-20T07:01:30.803Z,4.20
2022-09-20T07:03:33.471Z,4.05
2022-09-20T07:05:38.800Z,4.47
2022-09-20T07:07:41.362Z,4.82
2022-09-20T07:09:43.917Z,4.20
2022-09-20T07:11:46.508Z,3.88
2022-09-20T07:13:52.554Z,4.47
2022-09-20T07:16:01.444Z,3.97
2022-09-20T07:18:04.047Z,3.85
2022-09-20T07:20:07.442Z,3.92
2022-09-20T07:22:11.329Z,4.22
2022-09-20T07:24:15.083Z,5.70
2022-09-20T07:26:19.901Z,5.80
2022-09-20T07:28:22.399Z,4.25
2022-09-20T07:30:25.118Z,4.15
2022-09-20T07:32:27.688Z,3.30
2022-09-20T07:34:30.315Z,4.30
2022-09-20T07:36:32.853Z,3.92
2022-09-20T07:38:37.068Z,4.00
2022-09-20T07:40:39.681Z,2.97
2022-09-20T07:42:42.267Z,3.10
2022-09-20T07:44:44.835Z,3.38
2022-09-20T07:46:48.845Z,3.70
2022-09-20T07:48:51.463Z,4.50
2022-09-20T07:50:55.130Z,3.22
2022-09-20T07:52:58.018Z,3.75
2022-09-20T07:55:01.891Z,3.75
2022-09-20T07:57:05.659Z,4.35
2022-09-20T07:59:10.063Z,4.03
2022-09-20T08:01:14.246Z,3.90
2022-09-20T08:03:16.903Z,4.03
2022-09-20T08:05:19.511Z,3.95
2022-09-20T08:07:22.015Z,3.30
2022-09-20T08:09:24.576Z,3.20
2022-09-20T08:11:29.687Z,3.83
2022-09-20T08:16:02.319Z,4.60
2022-09-20T08:18:04.951Z,5.13
2022-09-20T08:20:09.543Z,4.82
2022-09-20T08:22:12.651Z,5.00
2022-09-20T08:24:16.347Z,5.22
2022-09-20T08:26:21.087Z,5.35
2022-09-20T08:28:25.106Z,5.80
2022-09-20T08:30:27.996Z,6.38
2022-09-20T08:32:30.590Z,6.05
2022-09-20T08:34:33.163Z,6.15
2022-09-20T08:36:37.801Z,6.05
2022-09-20T08:41:07.307Z,6.22
2022-09-20T08:43:11.958Z,6.35
2022-09-20T08:45:38.280Z,6.05
2022-09-20T08:47:49.175Z,6.60
2022-09-20T08:49:57.715Z,5.50
2022-09-20T08:52:03.064Z,5.00
2022-09-20T08:54:10.140Z,5.43
2022-09-20T08:56:12.690Z,5.35
2022-09-20T08:58:16.246Z,6.03
2022-09-20T09:00:22.770Z,5.93
2022-09-20T09:02:25.598Z,4.03
2022-09-20T09:04:36.029Z,4.45
2022-09-20T09:06:40.064Z,4.60
2022-09-20T09:08:47.484Z,4.97
2022-09-20T09:10:54.175Z,4.20
2022-09-20T09:12:58.275Z,4.22
2022-09-20T09:15:05.850Z,4.10
2022-09-20T09:17:11.588Z,3.97
2022-09-20T09:19:33.625Z,3.95
2022-09-20T09:21:37.192Z,4.65
2022-09-20T09:23:42.395Z,4.35
2022-09-20T09:25:45.033Z,4.85
2022-09-20T09:27:52.532Z,3.45
2022-09-20T09:29:56.835Z,3.47
2022-09-20T09:32:20.326Z,3.13
2022-09-20T09:34:28.151Z,3.08
2022-09-20T09:36:32.141Z,3.10
2022-09-20T09:38:37.034Z,2.83
2022-09-20T09:40:51.121Z,2.70
2022-09-20T09:42:55.757Z,3.05
2022-09-20T09:45:12.601Z,3.03
2022-09-20T09:47:28.523Z,2.70
2022-09-20T09:49:34.062Z,2.50
2022-09-20T09:51:38.633Z,2.40
2022-09-20T09:53:41.654Z,2.90
2022-09-20T09:56:10.855Z,2.38
2022-09-20T09:58:29.552Z,2.40
2022-09-20T10:00:33.159Z,3.00
2022-09-20T10:02:55.035Z,2.53
2022-09-20T10:05:04.157Z,2.67
2022-09-20T10:07:14.214Z,3.17
2022-09-20T10:09:29.994Z,2.30
2022-09-20T10:11:47.576Z,2.63
2022-09-20T10:14:03.079Z,2.63
2022-09-20T10:16:16.025Z,2.58
2022-09-20T10:18:40.723Z,2.70
2022-09-20T10:20:57.512Z,2.25
2022-09-20T10:25:40.670Z,2.40
2022-09-20T10:27:59.578Z,2.58
2022-09-20T10:30:09.928Z,2.10
2022-09-20T10:32:27.030Z,2.17
2022-09-20T10:34:48.852Z,2.08
2022-09-20T10:36:55.742Z,2.25
2022-09-20T10:39:04.447Z,1.70
2022-09-20T10:41:32.328Z,1.60
2022-09-20T10:43:54.433Z,1.80
2022-09-20T10:48:32.667Z,1.60
2022-09-20T10:50:44.915Z,1.83
2022-09-20T10:53:06.414Z,1.90
2022-09-20T10:55:26.036Z,1.88
2022-09-20T10:57:49.809Z,1.63
2022-09-20T11:00:01.085Z,1.85
2022-09-20T11:02:18.780Z,2.20
2022-09-20T11:04:46.280Z,1.55
2022-09-20T11:07:03.191Z,1.13
2022-09-20T11:09:13.851Z,1.90
2022-09-20T11:11:21.478Z,1.70
2022-09-20T11:13:32.232Z,1.95
2022-09-20T11:15:41.682Z,1.95
2022-09-20T11:17:59.719Z,1.50
2022-09-20T11:20:11.944Z,1.40
2022-09-20T11:22:19.781Z,2.08
2022-09-20T11:24:33.140Z,2.30
2022-09-20T11:26:41.007Z,1.90
2022-09-20T11:28:48.962Z,2.25
2022-09-20T11:31:00.187Z,2.03
2022-09-20T11:33:12.265Z,1.88
2022-09-20T11:35:30.904Z,2.03
2022-09-20T11:37:39.029Z,2.00
2022-09-20T11:39:47.943Z,2.00
2022-09-20T11:41:55.228Z,1.92
2022-09-20T11:44:04.140Z,1.50
2022-09-20T11:46:10.199Z,1.67
2022-09-20T11:48:19.356Z,1.90
2022-09-20T11:50:48.176Z,1.70
2022-09-20T11:53:05.275Z,2.55
2022-09-20T11:55:21.379Z,1.90
2022-09-20T11:57:25.351Z,2.10
2022-09-20T11:59:34.026Z,1.88
2022-09-20T12:01:38.551Z,2.03
2022-09-20T12:03:46.360Z,2.03
2022-09-20T12:05:57.819Z,1.67
2022-09-20T12:08:05.088Z,2.15
2022-09-20T12:10:21.467Z,1.65
2022-09-20T12:12:38.769Z,1.85
2022-09-20T12:14:42.232Z,1.98
2022-09-20T12:16:46.385Z,2.30
2022-09-20T12:19:03.248Z,1.88
2022-09-20T12:21:19.058Z,2.10
2022-09-20T12:24:10.556Z,2.10
2022-09-20T12:26:42.166Z,1.90
2022-09-20T12:28:49.318Z,1.80
2022-09-20T12:31:39.054Z,2.00
2022-09-20T12:33:57.360Z,2.22
2022-09-20T12:36:16.191Z,1.65
2022-09-20T12:38:37.946Z,1.50
2022-09-20T12:41:06.275Z,1.50
2022-09-20T12:43:25.662Z,1.90
2022-09-20T12:45:28.554Z,1.77
2022-09-20T12:47:33.918Z,1.67
2022-09-20T12:50:08.117Z,1.63
2022-09-20T12:52:43.706Z,1.65
2022-09-20T12:54:56.337Z,1.67
2022-09-20T12:57:20.088Z,1.83
2022-09-20T12:59:30.941Z,1.80
2022-09-20T13:01:38.142Z,1.58
2022-09-20T13:03:42.467Z,1.77
2022-09-20T13:05:47.105Z,1.77
2022-09-20T13:07:59.274Z,1.95
2022-09-20T13:10:07.759Z,1.55
2022-09-20T13:12:10.525Z,1.73
2022-09-20T13:14:15.805Z,2.13
2022-09-20T13:16:23.759Z,1.83
2022-09-20T13:18:28.717Z,2.17
2022-09-20T13:20:34.833Z,1.83
2022-09-20T13:22:43.501Z,2.10
2022-09-20T13:24:49.126Z,2.65
2022-09-20T13:26:53.997Z,1.58
2022-09-20T13:28:59.093Z,1.67
2022-09-20T13:31:34.960Z,1.88
2022-09-20T13:33:37.615Z,1.85
2022-09-20T13:35:41.810Z,1.50
2022-09-20T13:37:52.283Z,3.00
2022-09-20T13:39:56.415Z,1.38
2022-09-20T13:42:06.995Z,1.60
2022-09-20T13:44:17.454Z,1.75
2022-09-20T13:46:25.355Z,1.48
2022-09-20T13:48:30.833Z,1.88
2022-09-20T13:50:40.031Z,1.70
2022-09-20T13:52:46.757Z,1.38
2022-09-20T13:54:49.420Z,1.40
2022-09-20T13:56:53.164Z,1.67
2022-09-20T13:58:58.840Z,1.60
2022-09-20T14:01:05.122Z,1.48
2022-09-20T14:03:08.425Z,2.33
2022-09-20T14:05:18.657Z,2.10
2022-09-20T14:07:21.970Z,1.50
2022-09-20T14:09:29.824Z,1.50
2022-09-20T14:11:33.730Z,1.92
2022-09-20T14:13:40.623Z,1.70
2022-09-20T14:15:45.071Z,1.75
2022-09-20T14:17:48.959Z,1.75
2022-09-20T14:19:54.428Z,1.50
2022-09-20T14:21:59.838Z,1.55
2022-09-20T14:24:06.329Z,1.80
2022-09-20T14:26:24.239Z,1.30
2022-09-20T14:28:28.945Z,1.60
2022-09-20T14:30:33.334Z,1.60
2022-09-20T14:32:40.514Z,1.65
2022-09-20T14:34:44.265Z,1.38
2022-09-20T14:36:49.390Z,1.70
2022-09-20T14:38:56.086Z,1.20
2022-09-20T14:40:58.634Z,1.70
2022-09-20T14:43:03.353Z,2.35
2022-09-20T14:45:07.017Z,1.80
2022-09-20T14:47:15.307Z,1.63
2022-09-20T14:49:32.905Z,2.03
2022-09-20T14:51:35.432Z,1.77
2022-09-20T14:53:38.294Z,1.80
2022-09-20T14:55:56.563Z,1.95
2022-09-20T14:58:01.248Z,2.33
2022-09-20T15:00:09.115Z,1.77
2022-09-20T15:02:15.027Z,1.88
2022-09-20T15:04:21.962Z,1.92
2022-09-20T15:06:24.973Z,2.00
2022-09-20T15:08:28.441Z,1.88
2022-09-20T15:10:31.021Z,2.05
2022-09-20T15:12:34.917Z,2.13
2022-09-20T15:14:38.215Z,1.80
2022-09-20T15:16:41.575Z,2.20
2022-09-20T15:18:45.070Z,2.42
2022-09-20T15:20:47.754Z,2.47
2022-09-20T15:22:50.503Z,1.70
2022-09-20T15:24:53.036Z,1.95
2022-09-20T15:26:55.925Z,1.90
2022-09-20T15:29:00.028Z,1.95
2022-09-20T15:31:02.886Z,1.80
2022-09-20T15:33:05.399Z,2.17
2022-09-20T15:35:08.753Z,1.80
2022-09-20T15:37:11.286Z,1.80
2022-09-20T15:39:13.876Z,1.95
2022-09-20T15:41:16.444Z,2.13
2022-09-20T15:43:21.891Z,2.00
2022-09-20T15:45:26.905Z,2.03
2022-09-20T15:47:30.928Z,1.98
2022-09-20T15:49:33.472Z,1.48
2022-09-20T15:51:36.043Z,1.83
2022-09-20T15:53:40.778Z,2.20
2022-09-20T15:55:43.292Z,2.20
2022-09-20T15:57:46.178Z,1.45
2022-09-20T15:59:50.123Z,1.52
2022-09-20T16:01:54.060Z,1.60
2022-09-20T16:03:57.163Z,1.70
2022-09-20T16:06:04.369Z,1.95
2022-09-20T16:08:07.522Z,1.70
2022-09-20T16:10:10.665Z,1.90
2022-09-20T16:12:13.211Z,1.80
2022-09-20T16:14:16.225Z,2.50
2022-09-20T16:16:18.821Z,2.40
2022-09-20T16:18:40.382Z,1.90
2022-09-20T16:20:43.032Z,3.20
2022-09-20T16:22:46.966Z,1.98
2022-09-20T16:24:49.518Z,1.95
2022-09-20T16:26:52.115Z,2.10
2022-09-20T16:28:55.601Z,1.63
2022-09-20T16:30:58.314Z,1.40
2022-09-20T16:33:06.206Z,1.80
2022-09-20T16:35:10.173Z,1.92
2022-09-20T16:37:16.632Z,1.52
2022-09-20T16:39:20.917Z,2.47
2022-09-20T16:41:25.477Z,1.65
2022-09-20T16:43:28.013Z,1.95
2022-09-20T16:45:30.676Z,2.38
2022-09-20T16:47:33.270Z,1.73
2022-09-20T16:49:36.389Z,1.75
2022-09-20T16:51:41.821Z,1.65
2022-09-20T16:53:45.153Z,1.50
2022-09-20T16:55:48.902Z,1.90
2022-09-20T16:57:51.953Z,2.13
2022-09-20T16:59:55.795Z,1.92
2022-09-20T17:01:58.361Z,1.70
2022-09-20T17:04:02.908Z,1.50
2022-09-20T17:06:06.400Z,1.85
2022-09-20T17:08:10.910Z,1.80
2022-09-20T17:10:13.512Z,2.05
2022-09-20T17:12:21.698Z,1.95
2022-09-20T17:14:24.923Z,2.00
2022-09-20T17:16:29.763Z,2.35
2022-09-20T17:18:33.120Z,2.00
2022-09-20T17:20:35.664Z,2.38
2022-09-20T17:22:38.232Z,2.42
2022-09-20T17:24:42.151Z,2.35
2022-09-20T17:26:46.014Z,2.15
2022-09-20T17:28:51.618Z,2.17
2022-09-20T17:30:55.098Z,4.68
2022-09-20T17:32:57.663Z,30.27
2022-09-20T17:35:00.751Z,13.40
2022-09-20T17:37:03.401Z,3.60
2022-09-20T17:39:07.199Z,2.42
2022-09-20T17:41:13.979Z,2.47
2022-09-20T17:43:16.839Z,1.98
2022-09-20T17:45:19.416Z,2.22
2022-09-20T17:47:22.391Z,2.35
2022-09-20T17:49:26.681Z,2.38
2022-09-20T17:51:31.520Z,2.60
2022-09-20T17:53:35.984Z,2.80
2022-09-20T17:55:38.744Z,2.75
2022-09-20T17:57:42.577Z,3.28
2022-09-20T17:59:45.115Z,3.03
2022-09-20T18:01:49.434Z,3.55
2022-09-20T18:03:52.153Z,2.83
2022-09-20T18:05:54.920Z,3.10
2022-09-20T18:07:57.524Z,3.17
2022-09-20T18:10:00.086Z,4.30
2022-09-20T18:12:04.905Z,3.78
2022-09-20T18:14:11.182Z,5.03
2022-09-20T18:16:15.661Z,4.40
2022-09-20T18:18:18.735Z,3.63
2022-09-20T18:20:21.268Z,3.25
2022-09-20T18:22:23.943Z,5.30
2022-09-20T18:24:26.743Z,5.78
2022-09-20T18:26:32.183Z,5.03
2022-09-20T18:28:34.708Z,5.28
2022-09-20T18:30:39.952Z,13.98
2022-09-20T18:32:44.364Z,8.77
2022-09-20T18:34:51.110Z,10.30
2022-09-20T18:36:55.678Z,11.20
2022-09-20T18:38:59.661Z,8.43
2022-09-20T18:41:03.222Z,9.40
2022-09-20T18:43:08.727Z,7.68
2022-09-20T18:45:12.068Z,6.10
2022-09-20T18:47:16.020Z,4.32
2022-09-20T18:49:20.592Z,5.05
2022-09-20T18:51:24.308Z,4.25
2022-09-20T18:53:28.256Z,4.28
2022-09-20T18:55:31.371Z,3.95
2022-09-20T18:57:34.516Z,4.18
2022-09-20T18:59:37.581Z,3.78
2022-09-20T19:02:09.914Z,4.10
2022-09-20T19:04:37.580Z,3.53
2022-09-20T19:06:45.200Z,4.28
2022-09-20T19:08:59.093Z,4.70
2022-09-20T19:11:08.666Z,4.07
2022-09-20T19:13:25.265Z,4.10
2022-09-20T19:15:40.989Z,4.32
2022-09-20T19:17:57.895Z,3.83
2022-09-20T19:20:05.293Z,5.03
2022-09-20T19:22:16.736Z,4.35
2022-09-20T19:24:32.609Z,4.15
2022-09-20T19:26:37.989Z,3.92
2022-09-20T19:28:40.878Z,4.05
2022-09-20T19:30:44.076Z,4.60
2022-09-20T19:32:47.347Z,5.20
2022-09-20T19:34:52.695Z,4.30
2022-09-20T19:37:06.759Z,4.47
2022-09-20T19:39:15.601Z,4.35
2022-09-20T19:41:28.710Z,4.45
2022-09-20T19:43:46.926Z,4.70
2022-09-20T19:46:00.241Z,5.47
2022-09-20T19:48:10.077Z,4.68
2022-09-20T19:50:17.107Z,5.93
2022-09-20T19:52:21.996Z,4.85
2022-09-20T19:54:25.526Z,5.10
2022-09-20T19:56:29.614Z,5.22
2022-09-20T19:58:32.879Z,4.93
2022-09-20T20:00:36.260Z,5.53
2022-09-20T20:02:39.357Z,4.97
2022-09-20T20:04:43.487Z,5.15
2022-09-20T20:06:55.363Z,4.65
2022-09-20T20:11:18.366Z,4.65
2022-09-20T20:13:50.893Z,4.65
2022-09-20T20:16:01.842Z,3.95
2022-09-20T20:18:16.598Z,4.50
2022-09-20T20:20:26.330Z,4.20
2022-09-20T20:22:41.760Z,4.05
2022-09-20T20:24:51.702Z,4.18
2022-09-20T20:26:54.239Z,4.45
2022-09-20T20:28:56.744Z,4.60
2022-09-20T20:31:02.010Z,4.68
2022-09-20T20:33:05.118Z,4.53
2022-09-20T20:35:11.918Z,4.40
2022-09-20T20:37:15.714Z,4.07
2022-09-20T20:39:18.266Z,3.90
2022-09-20T20:41:23.596Z,4.00
2022-09-20T20:43:27.875Z,4.43
2022-09-20T20:45:30.917Z,3.92
2022-09-20T20:47:34.048Z,3.75
2022-09-20T20:49:36.869Z,4.38
2022-09-20T20:51:39.416Z,4.13
2022-09-20T20:53:44.904Z,4.50
2022-09-20T20:55:47.429Z,4.45
2022-09-20T20:57:58.423Z,4.32
2022-09-20T21:00:01.616Z,3.95
2022-09-20T21:02:07.836Z,4.32
2022-09-20T21:04:11.243Z,3.70
2022-09-20T21:06:14.823Z,4.53
2022-09-20T21:08:17.382Z,4.45
2022-09-20T21:10:22.311Z,4.22
2022-09-20T21:12:24.841Z,4.88
2022-09-20T21:14:33.742Z,4.05
2022-09-20T21:16:37.938Z,4.40
2022-09-20T21:18:41.785Z,4.72
2022-09-20T21:20:44.320Z,4.20
2022-09-20T21:22:46.947Z,4.28
2022-09-20T21:24:50.798Z,4.88
2022-09-20T21:26:53.516Z,4.55
2022-09-20T21:28:58.961Z,4.30
2022-09-20T21:31:05.037Z,4.30
2022-09-20T21:33:07.848Z,4.32
2022-09-20T21:35:10.450Z,5.25
2022-09-20T21:37:12.964Z,4.80
2022-09-20T21:39:15.495Z,5.22
2022-09-20T21:41:19.998Z,4.90
2022-09-20T21:43:22.793Z,5.22
2022-09-20T21:45:27.263Z,5.38
2022-09-20T21:47:31.687Z,5.03
2022-09-20T21:49:34.321Z,5.00
2022-09-20T21:51:37.530Z,4.75
2022-09-20T21:53:40.730Z,4.38
2022-09-20T21:55:43.281Z,5.45
2022-09-20T21:57:45.839Z,4.97
2022-09-20T21:59:48.394Z,4.50
2022-09-20T22:01:50.941Z,4.32
2022-09-20T22:03:58.884Z,4.90
2022-09-20T22:06:09.278Z,4.13
2022-09-20T22:08:11.843Z,4.20
2022-09-20T22:10:14.519Z,4.50
2022-09-20T22:12:17.072Z,3.80
2022-09-20T22:14:20.501Z,4.82
2022-09-20T22:16:25.067Z,3.80
2022-09-20T22:18:27.605Z,3.72
2022-09-20T22:20:31.491Z,4.00
2022-09-20T22:22:34.030Z,4.20
2022-09-20T22:24:36.568Z,4.32
2022-09-20T22:26:41.156Z,4.10
2022-09-20T22:28:44.021Z,4.45
2022-09-20T22:30:46.603Z,4.32
2022-09-20T22:32:49.223Z,4.07
2022-09-20T22:34:51.758Z,4.15
2022-09-20T22:36:55.644Z,4.75
2022-09-20T22:38:58.166Z,3.75
2022-09-20T22:41:00.899Z,5.63
2022-09-20T22:43:03.699Z,4.10
2022-09-20T22:45:07.517Z,5.05
2022-09-20T22:47:10.019Z,4.78
2022-09-20T22:49:12.628Z,4.05
2022-09-20T22:51:17.329Z,4.25
2022-09-20T22:53:21.227Z,4.55
2022-09-20T22:55:24.202Z,4.82
2022-09-20T22:57:26.788Z,4.25
2022-09-20T22:59:29.430Z,4.25
2022-09-20T23:01:34.559Z,4.18
2022-09-20T23:03:37.327Z,4.00
2022-09-20T23:05:40.530Z,3.72
2022-09-20T23:07:43.122Z,4.65
2022-09-20T23:09:47.896Z,3.88
2022-09-20T23:11:51.375Z,4.53
2022-09-20T23:13:55.599Z,4.55
2022-09-20T23:15:58.695Z,4.22
2022-09-20T23:18:01.216Z,4.93
2022-09-20T23:20:04.183Z,4.43
2022-09-20T23:22:06.703Z,5.18
2022-09-20T23:24:11.481Z,4.72
2022-09-20T23:26:18.523Z,4.95
2022-09-20T23:28:21.079Z,4.50
2022-09-20T23:30:23.600Z,4.55
2022-09-20T23:32:26.098Z,4.50
2022-09-20T23:34:28.602Z,4.10
2022-09-20T23:36:34.040Z,5.00
2022-09-20T23:38:36.612Z,4.43
2022-09-20T23:40:39.370Z,3.90
2022-09-20T23:42:43.208Z,4.10
2022-09-20T23:44:45.734Z,4.80
2022-09-20T23:46:48.286Z,4.10
2022-09-20T23:48:51.175Z,4.47
2022-09-20T23:50:53.905Z,4.15
2022-09-20T23:52:56.481Z,4.55
2022-09-20T23:54:58.996Z,4.60
2022-09-20T23:57:01.554Z,4.93
2022-09-20T23:59:05.422Z,4.60
